sensor_id;sensor_type;location;lat;lon;timestamp;temperature;humidity
63445;DHT22;49573;47.682;9.170;2022-09-03T00:01:36;17.30;81.80
63445;DHT22;49573;47.682;9.170;2022-09-03T00:04:27;17.30;81.80
63445;DHT22;49573;47.682;9.170;2022-09-03T00:07:19;17.20;82.00
63445;DHT22;49573;47.682;9.170;2022-09-03T00:10:10;17.10;82.00
63445;DHT22;49573;47.682;9.170;2022-09-03T00:13:00;17.10;82.20
63445;DHT22;49573;47.682;9.170;2022-09-03T00:15:49;17.00;83.00
63445;DHT22;49573;47.682;9.170;2022-09-03T00:18:42;17.00;83.00
63445;DHT22;49573;47.682;9.170;2022-09-03T00:21:35;17.10;82.40
63445;DHT22;49573;47.682;9.170;2022-09-03T00:24:24;17.10;82.40
63445;DHT22;49573;47.682;9.170;2022-09-03T00:27:15;17.10;82.50
63445;DHT22;49573;47.682;9.170;2022-09-03T00:30:05;17.10;82.60
63445;DHT22;49573;47.682;9.170;2022-09-03T00:32:56;17.10;82.60
63445;DHT22;49573;47.682;9.170;2022-09-03T00:35:46;17.20;82.30
63445;DHT22;49573;47.682;9.170;2022-09-03T00:38:36;17.20;82.40
63445;DHT22;49573;47.682;9.170;2022-09-03T00:41:30;17.30;82.90
63445;DHT22;49573;47.682;9.170;2022-09-03T00:44:31;17.30;83.00
63445;DHT22;49573;47.682;9.170;2022-09-03T00:47:22;17.30;83.00
63445;DHT22;49573;47.682;9.170;2022-09-03T00:50:16;17.30;83.30
63445;DHT22;49573;47.682;9.170;2022-09-03T00:53:12;17.30;83.40
63445;DHT22;49573;47.682;9.170;2022-09-03T00:56:07;17.20;83.20
63445;DHT22;49573;47.682;9.170;2022-09-03T00:59:07;17.10;83.60
63445;DHT22;49573;47.682;9.170;2022-09-03T01:02:03;17.10;83.90
63445;DHT22;49573;47.682;9.170;2022-09-03T01:04:57;17.10;84.30
63445;DHT22;49573;47.682;9.170;2022-09-03T01:07:51;17.20;84.30
63445;DHT22;49573;47.682;9.170;2022-09-03T01:10:47;17.20;83.80
63445;DHT22;49573;47.682;9.170;2022-09-03T01:13:38;17.30;84.40
63445;DHT22;49573;47.682;9.170;2022-09-03T01:16:27;17.20;84.90
63445;DHT22;49573;47.682;9.170;2022-09-03T01:19:32;17.20;84.90
63445;DHT22;49573;47.682;9.170;2022-09-03T01:22:52;17.30;84.50
63445;DHT22;49573;47.682;9.170;2022-09-03T01:25:51;17.30;84.30
63445;DHT22;49573;47.682;9.170;2022-09-03T01:28:48;17.20;84.30
63445;DHT22;49573;47.682;9.170;2022-09-03T01:31:47;17.20;84.40
63445;DHT22;49573;47.682;9.170;2022-09-03T01:34:44;17.20;84.20
63445;DHT22;49573;47.682;9.170;2022-09-03T01:37:43;17.30;83.70
63445;DHT22;49573;47.682;9.170;2022-09-03T01:40:40;17.30;84.20
63445;DHT22;49573;47.682;9.170;2022-09-03T01:43:34;17.30;84.20
63445;DHT22;49573;47.682;9.170;2022-09-03T01:46:25;17.30;84.10
63445;DHT22;49573;47.682;9.170;2022-09-03T01:49:19;17.30;83.70
63445;DHT22;49573;47.682;9.170;2022-09-03T01:52:11;17.40;83.30
63445;DHT22;49573;47.682;9.170;2022-09-03T01:55:06;17.30;83.30
63445;DHT22;49573;47.682;9.170;2022-09-03T01:57:57;17.30;83.00
63445;DHT22;49573;47.682;9.170;2022-09-03T02:00:49;17.40;83.00
63445;DHT22;49573;47.682;9.170;2022-09-03T02:03:41;17.40;82.80
63445;DHT22;49573;47.682;9.170;2022-09-03T02:06:29;17.40;82.90
63445;DHT22;49573;47.682;9.170;2022-09-03T02:09:19;17.40;82.80
63445;DHT22;49573;47.682;9.170;2022-09-03T02:12:06;17.40;82.60
63445;DHT22;49573;47.682;9.170;2022-09-03T02:14:54;17.50;82.80
63445;DHT22;49573;47.682;9.170;2022-09-03T02:17:40;17.50;83.10
63445;DHT22;49573;47.682;9.170;2022-09-03T02:20:28;17.50;83.50
63445;DHT22;49573;47.682;9.170;2022-09-03T02:23:15;17.50;83.80
63445;DHT22;49573;47.682;9.170;2022-09-03T02:26:02;17.50;83.60
63445;DHT22;49573;47.682;9.170;2022-09-03T02:28:49;17.50;83.10
63445;DHT22;49573;47.682;9.170;2022-09-03T02:31:35;17.50;83.40
63445;DHT22;49573;47.682;9.170;2022-09-03T02:34:21;17.50;83.50
63445;DHT22;49573;47.682;9.170;2022-09-03T02:37:13;17.50;83.60
63445;DHT22;49573;47.682;9.170;2022-09-03T02:39:59;17.50;83.50
63445;DHT22;49573;47.682;9.170;2022-09-03T02:42:46;17.50;83.50
63445;DHT22;49573;47.682;9.170;2022-09-03T02:45:33;17.50;83.70
63445;DHT22;49573;47.682;9.170;2022-09-03T02:48:23;17.50;83.40
63445;DHT22;49573;47.682;9.170;2022-09-03T02:51:09;17.50;83.70
63445;DHT22;49573;47.682;9.170;2022-09-03T02:53:56;17.50;83.40
63445;DHT22;49573;47.682;9.170;2022-09-03T02:56:42;17.50;83.50
63445;DHT22;49573;47.682;9.170;2022-09-03T02:59:28;17.50;83.90
63445;DHT22;49573;47.682;9.170;2022-09-03T03:02:14;17.50;83.70
63445;DHT22;49573;47.682;9.170;2022-09-03T03:05:00;17.50;83.80
63445;DHT22;49573;47.682;9.170;2022-09-03T03:07:46;17.50;83.80
63445;DHT22;49573;47.682;9.170;2022-09-03T03:10:34;17.50;83.70
63445;DHT22;49573;47.682;9.170;2022-09-03T03:13:20;17.50;83.60
63445;DHT22;49573;47.682;9.170;2022-09-03T03:16:06;17.30;83.90
63445;DHT22;49573;47.682;9.170;2022-09-03T03:18:52;17.40;83.90
63445;DHT22;49573;47.682;9.170;2022-09-03T03:21:38;17.40;83.80
63445;DHT22;49573;47.682;9.170;2022-09-03T03:24:24;17.40;84.10
63445;DHT22;49573;47.682;9.170;2022-09-03T03:27:12;17.30;84.30
63445;DHT22;49573;47.682;9.170;2022-09-03T03:29:59;17.30;84.30
63445;DHT22;49573;47.682;9.170;2022-09-03T03:32:45;17.30;84.10
63445;DHT22;49573;47.682;9.170;2022-09-03T03:35:32;17.30;84.20
63445;DHT22;49573;47.682;9.170;2022-09-03T03:38:18;17.30;84.00
63445;DHT22;49573;47.682;9.170;2022-09-03T03:41:08;17.30;84.20
63445;DHT22;49573;47.682;9.170;2022-09-03T03:43:57;17.20;84.20
63445;DHT22;49573;47.682;9.170;2022-09-03T03:46:44;17.20;84.00
63445;DHT22;49573;47.682;9.170;2022-09-03T03:49:30;17.30;83.90
63445;DHT22;49573;47.682;9.170;2022-09-03T03:52:16;17.30;84.20
63445;DHT22;49573;47.682;9.170;2022-09-03T03:55:02;17.30;84.40
63445;DHT22;49573;47.682;9.170;2022-09-03T03:57:48;17.20;84.50
63445;DHT22;49573;47.682;9.170;2022-09-03T04:00:35;17.30;84.30
63445;DHT22;49573;47.682;9.170;2022-09-03T04:03:22;17.20;84.30
63445;DHT22;49573;47.682;9.170;2022-09-03T04:06:09;17.10;84.60
63445;DHT22;49573;47.682;9.170;2022-09-03T04:08:56;17.20;84.30
63445;DHT22;49573;47.682;9.170;2022-09-03T04:11:42;17.30;84.20
63445;DHT22;49573;47.682;9.170;2022-09-03T04:14:28;17.20;84.30
63445;DHT22;49573;47.682;9.170;2022-09-03T04:17:15;17.10;84.80
63445;DHT22;49573;47.682;9.170;2022-09-03T04:20:02;17.20;84.90
63445;DHT22;49573;47.682;9.170;2022-09-03T04:22:48;17.20;84.80
63445;DHT22;49573;47.682;9.170;2022-09-03T04:25:34;17.20;84.70
63445;DHT22;49573;47.682;9.170;2022-09-03T04:28:21;17.20;85.20
63445;DHT22;49573;47.682;9.170;2022-09-03T04:31:09;17.20;85.10
63445;DHT22;49573;47.682;9.170;2022-09-03T04:33:57;17.20;84.80
63445;DHT22;49573;47.682;9.170;2022-09-03T04:36:43;17.20;84.70
63445;DHT22;49573;47.682;9.170;2022-09-03T04:39:29;17.20;84.90
63445;DHT22;49573;47.682;9.170;2022-09-03T04:42:15;17.20;85.00
63445;DHT22;49573;47.682;9.170;2022-09-03T04:45:01;17.10;84.80
63445;DHT22;49573;47.682;9.170;2022-09-03T04:47:55;17.20;84.40
63445;DHT22;49573;47.682;9.170;2022-09-03T04:50:43;17.20;84.90
63445;DHT22;49573;47.682;9.170;2022-09-03T04:53:29;17.20;84.90
63445;DHT22;49573;47.682;9.170;2022-09-03T04:56:16;17.20;85.10
63445;DHT22;49573;47.682;9.170;2022-09-03T04:59:04;17.20;84.50
63445;DHT22;49573;47.682;9.170;2022-09-03T05:01:51;17.20;85.10
63445;DHT22;49573;47.682;9.170;2022-09-03T05:04:41;17.20;85.50
63445;DHT22;49573;47.682;9.170;2022-09-03T05:07:29;17.20;85.30
63445;DHT22;49573;47.682;9.170;2022-09-03T05:10:23;17.30;85.30
63445;DHT22;49573;47.682;9.170;2022-09-03T05:13:09;17.20;85.40
63445;DHT22;49573;47.682;9.170;2022-09-03T05:15:58;17.20;85.40
63445;DHT22;49573;47.682;9.170;2022-09-03T05:18:45;17.20;85.60
63445;DHT22;49573;47.682;9.170;2022-09-03T05:21:32;17.10;85.40
63445;DHT22;49573;47.682;9.170;2022-09-03T05:24:22;17.10;85.50
63445;DHT22;49573;47.682;9.170;2022-09-03T05:27:08;17.10;85.60
63445;DHT22;49573;47.682;9.170;2022-09-03T05:29:54;17.10;85.70
63445;DHT22;49573;47.682;9.170;2022-09-03T05:32:40;17.20;85.70
63445;DHT22;49573;47.682;9.170;2022-09-03T05:35:26;17.20;85.50
63445;DHT22;49573;47.682;9.170;2022-09-03T05:38:13;17.30;85.40
63445;DHT22;49573;47.682;9.170;2022-09-03T05:41:03;17.10;86.00
63445;DHT22;49573;47.682;9.170;2022-09-03T05:43:51;17.20;85.90
63445;DHT22;49573;47.682;9.170;2022-09-03T05:46:41;17.30;85.90
63445;DHT22;49573;47.682;9.170;2022-09-03T05:49:27;17.30;85.80
63445;DHT22;49573;47.682;9.170;2022-09-03T05:52:15;17.30;85.90
63445;DHT22;49573;47.682;9.170;2022-09-03T05:55:01;17.30;85.70
63445;DHT22;49573;47.682;9.170;2022-09-03T05:57:51;17.30;85.80
63445;DHT22;49573;47.682;9.170;2022-09-03T06:00:37;17.30;85.90
63445;DHT22;49573;47.682;9.170;2022-09-03T06:03:24;17.30;86.00
63445;DHT22;49573;47.682;9.170;2022-09-03T06:06:11;17.50;85.90
63445;DHT22;49573;47.682;9.170;2022-09-03T06:09:00;17.50;85.90
63445;DHT22;49573;47.682;9.170;2022-09-03T06:11:47;17.70;85.20
63445;DHT22;49573;47.682;9.170;2022-09-03T06:14:35;17.80;85.70
63445;DHT22;49573;47.682;9.170;2022-09-03T06:17:21;17.80;85.60
63445;DHT22;49573;47.682;9.170;2022-09-03T06:20:08;17.90;85.50
63445;DHT22;49573;47.682;9.170;2022-09-03T06:22:54;18.00;85.60
63445;DHT22;49573;47.682;9.170;2022-09-03T06:25:40;18.10;85.60
63445;DHT22;49573;47.682;9.170;2022-09-03T06:28:26;18.00;85.90
63445;DHT22;49573;47.682;9.170;2022-09-03T06:31:16;18.00;85.20
63445;DHT22;49573;47.682;9.170;2022-09-03T06:34:02;18.10;85.00
63445;DHT22;49573;47.682;9.170;2022-09-03T06:36:48;18.10;85.20
63445;DHT22;49573;47.682;9.170;2022-09-03T06:39:35;18.10;85.30
63445;DHT22;49573;47.682;9.170;2022-09-03T06:42:21;18.10;85.30
63445;DHT22;49573;47.682;9.170;2022-09-03T06:45:09;18.10;85.10
63445;DHT22;49573;47.682;9.170;2022-09-03T06:47:57;18.20;84.90
63445;DHT22;49573;47.682;9.170;2022-09-03T06:50:43;18.20;85.20
63445;DHT22;49573;47.682;9.170;2022-09-03T06:53:31;18.30;85.40
63445;DHT22;49573;47.682;9.170;2022-09-03T06:56:19;18.30;85.20
63445;DHT22;49573;47.682;9.170;2022-09-03T06:59:12;18.40;84.90
63445;DHT22;49573;47.682;9.170;2022-09-03T07:01:59;18.50;85.30
63445;DHT22;49573;47.682;9.170;2022-09-03T07:04:48;18.50;85.00
63445;DHT22;49573;47.682;9.170;2022-09-03T07:07:34;18.50;85.30
63445;DHT22;49573;47.682;9.170;2022-09-03T07:10:22;18.60;85.00
63445;DHT22;49573;47.682;9.170;2022-09-03T07:13:08;18.70;84.80
63445;DHT22;49573;47.682;9.170;2022-09-03T07:15:59;18.70;84.20
63445;DHT22;49573;47.682;9.170;2022-09-03T07:18:46;18.70;83.10
63445;DHT22;49573;47.682;9.170;2022-09-03T07:21:34;18.80;83.20
63445;DHT22;49573;47.682;9.170;2022-09-03T07:24:26;18.80;83.40
63445;DHT22;49573;47.682;9.170;2022-09-03T07:27:12;18.90;83.60
63445;DHT22;49573;47.682;9.170;2022-09-03T07:29:58;19.00;83.20
63445;DHT22;49573;47.682;9.170;2022-09-03T07:32:44;18.90;83.30
63445;DHT22;49573;47.682;9.170;2022-09-03T07:35:35;19.00;82.00
63445;DHT22;49573;47.682;9.170;2022-09-03T07:38:22;19.00;82.70
63445;DHT22;49573;47.682;9.170;2022-09-03T07:41:10;19.10;83.20
63445;DHT22;49573;47.682;9.170;2022-09-03T07:43:56;19.40;82.80
63445;DHT22;49573;47.682;9.170;2022-09-03T07:46:42;19.40;82.40
63445;DHT22;49573;47.682;9.170;2022-09-03T07:49:30;19.40;82.00
63445;DHT22;49573;47.682;9.170;2022-09-03T07:52:17;19.50;82.50
63445;DHT22;49573;47.682;9.170;2022-09-03T07:55:06;19.60;81.90
63445;DHT22;49573;47.682;9.170;2022-09-03T07:57:55;19.70;81.30
63445;DHT22;49573;47.682;9.170;2022-09-03T08:00:41;19.90;80.30
63445;DHT22;49573;47.682;9.170;2022-09-03T08:03:27;19.90;79.30
63445;DHT22;49573;47.682;9.170;2022-09-03T08:06:14;20.10;80.10
63445;DHT22;49573;47.682;9.170;2022-09-03T08:09:02;20.30;80.70
63445;DHT22;49573;47.682;9.170;2022-09-03T08:11:50;20.30;78.90
63445;DHT22;49573;47.682;9.170;2022-09-03T08:14:36;20.30;77.30
63445;DHT22;49573;47.682;9.170;2022-09-03T08:17:22;20.30;76.80
63445;DHT22;49573;47.682;9.170;2022-09-03T08:20:09;20.50;75.70
63445;DHT22;49573;47.682;9.170;2022-09-03T08:23:00;20.60;77.20
63445;DHT22;49573;47.682;9.170;2022-09-03T08:25:46;20.70;76.40
63445;DHT22;49573;47.682;9.170;2022-09-03T08:28:34;20.80;76.20
63445;DHT22;49573;47.682;9.170;2022-09-03T08:31:22;20.90;76.20
63445;DHT22;49573;47.682;9.170;2022-09-03T08:34:09;21.00;77.20
63445;DHT22;49573;47.682;9.170;2022-09-03T08:36:56;21.10;75.70
63445;DHT22;49573;47.682;9.170;2022-09-03T08:39:44;21.30;73.40
63445;DHT22;49573;47.682;9.170;2022-09-03T08:42:42;21.30;74.30
63445;DHT22;49573;47.682;9.170;2022-09-03T08:45:33;21.00;73.50
63445;DHT22;49573;47.682;9.170;2022-09-03T08:48:21;21.20;74.60
63445;DHT22;49573;47.682;9.170;2022-09-03T08:51:09;21.40;75.40
63445;DHT22;49573;47.682;9.170;2022-09-03T08:53:57;21.30;74.60
63445;DHT22;49573;47.682;9.170;2022-09-03T08:56:44;21.40;74.50
63445;DHT22;49573;47.682;9.170;2022-09-03T08:59:31;21.50;75.50
63445;DHT22;49573;47.682;9.170;2022-09-03T09:02:25;21.60;72.60
63445;DHT22;49573;47.682;9.170;2022-09-03T09:05:17;21.80;73.70
63445;DHT22;49573;47.682;9.170;2022-09-03T09:08:12;22.00;72.50
63445;DHT22;49573;47.682;9.170;2022-09-03T09:11:10;22.20;71.10
63445;DHT22;49573;47.682;9.170;2022-09-03T09:14:03;22.10;71.80
63445;DHT22;49573;47.682;9.170;2022-09-03T09:16:58;22.20;69.90
63445;DHT22;49573;47.682;9.170;2022-09-03T09:19:55;22.20;70.30
63445;DHT22;49573;47.682;9.170;2022-09-03T09:22:51;22.40;70.00
63445;DHT22;49573;47.682;9.170;2022-09-03T09:25:46;22.70;70.20
63445;DHT22;49573;47.682;9.170;2022-09-03T09:28:35;22.60;67.80
63445;DHT22;49573;47.682;9.170;2022-09-03T09:31:22;22.70;68.70
63445;DHT22;49573;47.682;9.170;2022-09-03T09:34:08;23.00;67.90
63445;DHT22;49573;47.682;9.170;2022-09-03T09:36:56;23.00;67.00
63445;DHT22;49573;47.682;9.170;2022-09-03T09:39:54;23.20;66.00
63445;DHT22;49573;47.682;9.170;2022-09-03T09:42:40;23.50;66.60
63445;DHT22;49573;47.682;9.170;2022-09-03T09:45:26;23.50;64.80
63445;DHT22;49573;47.682;9.170;2022-09-03T09:48:17;23.70;65.00
63445;DHT22;49573;47.682;9.170;2022-09-03T09:51:05;23.80;64.60
63445;DHT22;49573;47.682;9.170;2022-09-03T09:54:09;23.70;63.20
63445;DHT22;49573;47.682;9.170;2022-09-03T09:56:59;23.90;63.00
63445;DHT22;49573;47.682;9.170;2022-09-03T09:59:45;24.20;62.30
63445;DHT22;49573;47.682;9.170;2022-09-03T10:02:34;24.40;63.00
63445;DHT22;49573;47.682;9.170;2022-09-03T10:05:22;24.70;61.30
63445;DHT22;49573;47.682;9.170;2022-09-03T10:08:19;24.70;60.30
63445;DHT22;49573;47.682;9.170;2022-09-03T10:11:07;24.10;57.70
63445;DHT22;49573;47.682;9.170;2022-09-03T10:13:54;23.80;61.30
63445;DHT22;49573;47.682;9.170;2022-09-03T10:16:44;23.50;60.40
63445;DHT22;49573;47.682;9.170;2022-09-03T10:19:40;23.20;59.30
63445;DHT22;49573;47.682;9.170;2022-09-03T10:22:28;22.30;60.00
63445;DHT22;49573;47.682;9.170;2022-09-03T10:25:14;22.00;61.50
63445;DHT22;49573;47.682;9.170;2022-09-03T10:28:05;21.80;65.00
63445;DHT22;49573;47.682;9.170;2022-09-03T10:31:12;21.30;71.80
63445;DHT22;49573;47.682;9.170;2022-09-03T10:34:09;21.30;74.30
63445;DHT22;49573;47.682;9.170;2022-09-03T10:37:03;21.40;74.30
63445;DHT22;49573;47.682;9.170;2022-09-03T10:40:05;21.30;74.80
63445;DHT22;49573;47.682;9.170;2022-09-03T10:43:12;21.40;74.10
63445;DHT22;49573;47.682;9.170;2022-09-03T10:46:03;21.00;75.00
63445;DHT22;49573;47.682;9.170;2022-09-03T10:49:10;20.90;76.50
63445;DHT22;49573;47.682;9.170;2022-09-03T10:52:02;20.90;76.80
63445;DHT22;49573;47.682;9.170;2022-09-03T10:55:12;21.00;77.40
63445;DHT22;49573;47.682;9.170;2022-09-03T10:58:10;21.20;76.90
63445;DHT22;49573;47.682;9.170;2022-09-03T11:01:08;21.40;76.90
63445;DHT22;49573;47.682;9.170;2022-09-03T11:04:04;21.30;76.70
63445;DHT22;49573;47.682;9.170;2022-09-03T11:07:00;21.60;76.60
63445;DHT22;49573;47.682;9.170;2022-09-03T11:09:53;21.60;76.80
63445;DHT22;49573;47.682;9.170;2022-09-03T11:12:45;21.80;77.20
63445;DHT22;49573;47.682;9.170;2022-09-03T11:15:35;21.80;75.40
63445;DHT22;49573;47.682;9.170;2022-09-03T11:18:26;22.20;75.10
63445;DHT22;49573;47.682;9.170;2022-09-03T11:21:17;22.40;74.90
63445;DHT22;49573;47.682;9.170;2022-09-03T11:24:11;22.80;74.80
63445;DHT22;49573;47.682;9.170;2022-09-03T11:27:15;23.10;75.20
63445;DHT22;49573;47.682;9.170;2022-09-03T11:30:06;23.00;75.00
63445;DHT22;49573;47.682;9.170;2022-09-03T11:32:55;23.20;72.00
63445;DHT22;49573;47.682;9.170;2022-09-03T11:35:45;22.90;70.30
63445;DHT22;49573;47.682;9.170;2022-09-03T11:38:32;22.70;70.60
63445;DHT22;49573;47.682;9.170;2022-09-03T11:41:24;22.80;70.80
63445;DHT22;49573;47.682;9.170;2022-09-03T11:44:17;22.80;72.80
63445;DHT22;49573;47.682;9.170;2022-09-03T11:47:13;22.80;69.90
63445;DHT22;49573;47.682;9.170;2022-09-03T11:50:06;22.60;68.70
63445;DHT22;49573;47.682;9.170;2022-09-03T11:53:05;22.70;68.90
63445;DHT22;49573;47.682;9.170;2022-09-03T11:55:54;22.60;69.50
63445;DHT22;49573;47.682;9.170;2022-09-03T11:58:41;22.70;68.70
63445;DHT22;49573;47.682;9.170;2022-09-03T12:01:28;22.60;69.80
63445;DHT22;49573;47.682;9.170;2022-09-03T12:04:18;22.80;64.50
63445;DHT22;49573;47.682;9.170;2022-09-03T12:07:18;23.30;62.60
63445;DHT22;49573;47.682;9.170;2022-09-03T12:10:18;22.90;60.40
63445;DHT22;49573;47.682;9.170;2022-09-03T12:13:25;23.30;60.40
63445;DHT22;49573;47.682;9.170;2022-09-03T12:16:38;22.60;58.00
63445;DHT22;49573;47.682;9.170;2022-09-03T12:19:31;22.80;59.00
63445;DHT22;49573;47.682;9.170;2022-09-03T12:22:22;22.20;58.50
63445;DHT22;49573;47.682;9.170;2022-09-03T12:25:13;22.20;59.00
63445;DHT22;49573;47.682;9.170;2022-09-03T12:28:00;23.00;57.60
63445;DHT22;49573;47.682;9.170;2022-09-03T12:30:49;23.00;57.30
63445;DHT22;49573;47.682;9.170;2022-09-03T12:33:40;23.10;56.30
63445;DHT22;49573;47.682;9.170;2022-09-03T12:36:36;23.20;56.20
63445;DHT22;49573;47.682;9.170;2022-09-03T12:39:25;23.50;54.90
63445;DHT22;49573;47.682;9.170;2022-09-03T12:42:17;24.10;55.00
63445;DHT22;49573;47.682;9.170;2022-09-03T12:45:06;23.40;55.50
63445;DHT22;49573;47.682;9.170;2022-09-03T12:47:54;24.30;55.40
63445;DHT22;49573;47.682;9.170;2022-09-03T12:50:40;25.30;53.30
63445;DHT22;49573;47.682;9.170;2022-09-03T12:53:28;25.30;52.10
63445;DHT22;49573;47.682;9.170;2022-09-03T12:56:16;24.80;54.20
63445;DHT22;49573;47.682;9.170;2022-09-03T12:59:07;24.90;50.50
63445;DHT22;49573;47.682;9.170;2022-09-03T13:01:57;25.20;49.60
63445;DHT22;49573;47.682;9.170;2022-09-03T13:04:45;25.10;50.70
63445;DHT22;49573;47.682;9.170;2022-09-03T13:07:32;25.10;51.70
63445;DHT22;49573;47.682;9.170;2022-09-03T13:10:24;25.40;50.50
63445;DHT22;49573;47.682;9.170;2022-09-03T13:13:20;25.40;49.40
63445;DHT22;49573;47.682;9.170;2022-09-03T13:19:41;25.10;49.20
63445;DHT22;49573;47.682;9.170;2022-09-03T13:22:34;24.30;52.40
63445;DHT22;49573;47.682;9.170;2022-09-03T13:25:27;25.10;51.40
63445;DHT22;49573;47.682;9.170;2022-09-03T13:28:25;25.30;51.70
63445;DHT22;49573;47.682;9.170;2022-09-03T13:31:27;25.40;51.90
63445;DHT22;49573;47.682;9.170;2022-09-03T13:34:17;25.90;50.00
63445;DHT22;49573;47.682;9.170;2022-09-03T13:37:14;25.80;50.00
63445;DHT22;49573;47.682;9.170;2022-09-03T13:40:09;25.40;49.40
63445;DHT22;49573;47.682;9.170;2022-09-03T13:43:03;25.40;49.70
63445;DHT22;49573;47.682;9.170;2022-09-03T13:45:53;26.30;50.30
63445;DHT22;49573;47.682;9.170;2022-09-03T13:48:43;26.20;48.00
63445;DHT22;49573;47.682;9.170;2022-09-03T13:51:52;25.20;50.90
63445;DHT22;49573;47.682;9.170;2022-09-03T13:54:44;24.40;52.00
63445;DHT22;49573;47.682;9.170;2022-09-03T13:57:36;24.00;53.30
63445;DHT22;49573;47.682;9.170;2022-09-03T14:00:27;24.20;53.30
63445;DHT22;49573;47.682;9.170;2022-09-03T14:03:24;25.30;51.60
63445;DHT22;49573;47.682;9.170;2022-09-03T14:06:25;26.30;51.40
63445;DHT22;49573;47.682;9.170;2022-09-03T14:09:22;27.00;47.20
63445;DHT22;49573;47.682;9.170;2022-09-03T14:12:18;27.10;48.60
63445;DHT22;49573;47.682;9.170;2022-09-03T14:15:16;27.20;50.40
63445;DHT22;49573;47.682;9.170;2022-09-03T14:18:12;28.20;47.20
63445;DHT22;49573;47.682;9.170;2022-09-03T14:21:02;28.40;48.40
63445;DHT22;49573;47.682;9.170;2022-09-03T14:23:58;28.10;46.60
63445;DHT22;49573;47.682;9.170;2022-09-03T14:26:51;28.70;47.50
63445;DHT22;49573;47.682;9.170;2022-09-03T14:29:37;28.50;45.60
63445;DHT22;49573;47.682;9.170;2022-09-03T14:32:42;28.40;46.60
63445;DHT22;49573;47.682;9.170;2022-09-03T14:35:46;27.70;47.60
63445;DHT22;49573;47.682;9.170;2022-09-03T14:45:21;28.30;46.20
63445;DHT22;49573;47.682;9.170;2022-09-03T14:51:42;29.90;44.80
63445;DHT22;49573;47.682;9.170;2022-09-03T14:58:15;30.00;44.00
63445;DHT22;49573;47.682;9.170;2022-09-03T15:01:09;29.60;44.20
63445;DHT22;49573;47.682;9.170;2022-09-03T15:07:35;30.40;41.90
63445;DHT22;49573;47.682;9.170;2022-09-03T15:10:30;30.60;43.50
63445;DHT22;49573;47.682;9.170;2022-09-03T15:13:20;30.40;42.50
63445;DHT22;49573;47.682;9.170;2022-09-03T15:16:17;30.50;43.10
63445;DHT22;49573;47.682;9.170;2022-09-03T15:19:12;31.40;42.20
63445;DHT22;49573;47.682;9.170;2022-09-03T15:22:08;31.00;42.10
63445;DHT22;49573;47.682;9.170;2022-09-03T15:25:07;31.70;38.90
63445;DHT22;49573;47.682;9.170;2022-09-03T15:28:04;30.50;41.10
63445;DHT22;49573;47.682;9.170;2022-09-03T15:30:58;31.00;40.20
63445;DHT22;49573;47.682;9.170;2022-09-03T15:33:49;30.20;40.00
63445;DHT22;49573;47.682;9.170;2022-09-03T15:36:40;30.00;41.30
63445;DHT22;49573;47.682;9.170;2022-09-03T15:39:32;30.10;40.90
63445;DHT22;49573;47.682;9.170;2022-09-03T15:42:24;29.90;42.00
63445;DHT22;49573;47.682;9.170;2022-09-03T15:45:17;30.30;41.60
63445;DHT22;49573;47.682;9.170;2022-09-03T15:48:27;30.60;40.90
63445;DHT22;49573;47.682;9.170;2022-09-03T15:51:18;30.40;41.50
63445;DHT22;49573;47.682;9.170;2022-09-03T15:54:09;30.50;41.60
63445;DHT22;49573;47.682;9.170;2022-09-03T15:57:01;31.10;41.20
63445;DHT22;49573;47.682;9.170;2022-09-03T15:59:53;31.50;40.90
63445;DHT22;49573;47.682;9.170;2022-09-03T16:02:47;31.40;39.00
63445;DHT22;49573;47.682;9.170;2022-09-03T16:05:42;30.70;40.80
63445;DHT22;49573;47.682;9.170;2022-09-03T16:08:37;30.00;41.50
63445;DHT22;49573;47.682;9.170;2022-09-03T16:11:33;31.00;42.60
63445;DHT22;49573;47.682;9.170;2022-09-03T16:14:26;31.80;42.30
63445;DHT22;49573;47.682;9.170;2022-09-03T16:17:21;31.80;41.80
63445;DHT22;49573;47.682;9.170;2022-09-03T16:20:17;32.00;42.90
63445;DHT22;49573;47.682;9.170;2022-09-03T16:23:10;32.70;41.10
63445;DHT22;49573;47.682;9.170;2022-09-03T16:26:03;33.10;40.60
63445;DHT22;49573;47.682;9.170;2022-09-03T16:28:52;33.20;40.00
63445;DHT22;49573;47.682;9.170;2022-09-03T16:31:50;32.80;40.30
63445;DHT22;49573;47.682;9.170;2022-09-03T16:34:53;32.40;41.70
63445;DHT22;49573;47.682;9.170;2022-09-03T16:37:57;31.80;42.60
63445;DHT22;49573;47.682;9.170;2022-09-03T16:40:52;31.50;42.90
63445;DHT22;49573;47.682;9.170;2022-09-03T16:43:44;31.40;43.10
63445;DHT22;49573;47.682;9.170;2022-09-03T16:46:36;31.50;43.40
63445;DHT22;49573;47.682;9.170;2022-09-03T16:49:38;31.50;43.40
63445;DHT22;49573;47.682;9.170;2022-09-03T16:52:35;31.50;42.70
63445;DHT22;49573;47.682;9.170;2022-09-03T16:55:27;31.50;42.70
63445;DHT22;49573;47.682;9.170;2022-09-03T16:58:21;30.80;44.00
63445;DHT22;49573;47.682;9.170;2022-09-03T17:01:18;30.40;45.10
63445;DHT22;49573;47.682;9.170;2022-09-03T17:04:15;30.40;44.90
63445;DHT22;49573;47.682;9.170;2022-09-03T17:07:17;30.10;45.50
63445;DHT22;49573;47.682;9.170;2022-09-03T17:10:18;30.00;45.80
63445;DHT22;49573;47.682;9.170;2022-09-03T17:16:37;29.50;46.90
63445;DHT22;49573;47.682;9.170;2022-09-03T17:19:32;29.10;48.30
63445;DHT22;49573;47.682;9.170;2022-09-03T17:22:29;28.60;49.00
63445;DHT22;49573;47.682;9.170;2022-09-03T17:25:25;28.10;49.90
63445;DHT22;49573;47.682;9.170;2022-09-03T17:28:22;27.40;51.10
63445;DHT22;49573;47.682;9.170;2022-09-03T17:31:16;26.90;52.60
63445;DHT22;49573;47.682;9.170;2022-09-03T17:34:14;26.50;53.30
63445;DHT22;49573;47.682;9.170;2022-09-03T17:37:15;26.30;54.10
63445;DHT22;49573;47.682;9.170;2022-09-03T17:40:25;25.90;55.00
63445;DHT22;49573;47.682;9.170;2022-09-03T17:43:17;25.50;56.10
63445;DHT22;49573;47.682;9.170;2022-09-03T17:46:15;25.30;57.10
63445;DHT22;49573;47.682;9.170;2022-09-03T17:49:06;25.00;57.50
63445;DHT22;49573;47.682;9.170;2022-09-03T17:52:02;24.70;58.60
63445;DHT22;49573;47.682;9.170;2022-09-03T17:54:51;24.40;59.10
63445;DHT22;49573;47.682;9.170;2022-09-03T17:57:42;24.20;60.20
63445;DHT22;49573;47.682;9.170;2022-09-03T18:00:33;24.00;60.60
63445;DHT22;49573;47.682;9.170;2022-09-03T18:03:26;23.90;60.80
63445;DHT22;49573;47.682;9.170;2022-09-03T18:06:21;23.60;62.00
63445;DHT22;49573;47.682;9.170;2022-09-03T18:09:21;23.30;62.90
63445;DHT22;49573;47.682;9.170;2022-09-03T18:12:11;23.00;63.80
63445;DHT22;49573;47.682;9.170;2022-09-03T18:15:06;22.70;64.60
63445;DHT22;49573;47.682;9.170;2022-09-03T18:17:57;22.50;65.60
63445;DHT22;49573;47.682;9.170;2022-09-03T18:20:49;22.50;65.40
63445;DHT22;49573;47.682;9.170;2022-09-03T18:23:58;22.30;66.30
63445;DHT22;49573;47.682;9.170;2022-09-03T18:27:09;22.20;66.30